createdAt,value
2019-04-27T00:02:40.041Z,99268.63
2019-04-27T00:05:34.860Z,99278.20
2019-04-27T00:08:13.944Z,99273.38
2019-04-27T00:10:55.537Z,99273.86
2019-04-27T00:13:27.721Z,99270.48
2019-04-27T00:16:24.372Z,99272.02
2019-04-27T00:19:15.124Z,99274.33
2019-04-27T00:22:05.038Z,99272.14
2019-04-27T00:24:37.123Z,99270.68
2019-04-27T00:27:09.282Z,99270.67
2019-04-27T00:29:42.816Z,99267.05
2019-04-27T00:32:14.936Z,99276.16
2019-04-27T00:34:47.083Z,99275.55
2019-04-27T00:37:36.713Z,99282.12
2019-04-27T00:40:18.033Z,99274.80
2019-04-27T00:42:49.896Z,99272.22
2019-04-27T00:45:23.440Z,99274.84
2019-04-27T00:47:59.459Z,99268.75
2019-04-27T00:50:29.194Z,99268.97
2019-04-27T00:53:03.424Z,99267.06
2019-04-27T00:55:37.445Z,99267.80
2019-04-27T00:58:17.386Z,99262.36
2019-04-27T01:01:10.153Z,99263.06
2019-04-27T01:04:00.926Z,99262.81
2019-04-27T01:06:33.620Z,99264.16
2019-04-27T01:09:09.500Z,99266.98
2019-04-27T01:11:43.428Z,99260.89
2019-04-27T01:14:15.626Z,99258.25
2019-04-27T01:16:49.225Z,99253.70
2019-04-27T01:19:21.309Z,99251.55
2019-04-27T01:21:53.350Z,99254.69
2019-04-27T01:24:25.436Z,99247.84
2019-04-27T01:27:34.298Z,99241.22
2019-04-27T01:30:11.837Z,99244.47
2019-04-27T01:32:44.017Z,99244.22
2019-04-27T01:35:15.135Z,99241.09
2019-04-27T01:37:48.672Z,99238.39
2019-04-27T01:40:20.697Z,99243.53
2019-04-27T01:42:52.588Z,99241.72
2019-04-27T01:45:24.617Z,99245.07
2019-04-27T01:47:59.429Z,99242.21
2019-04-27T01:50:31.227Z,99240.64
2019-04-27T01:53:03.308Z,99242.57
2019-04-27T01:55:34.396Z,99240.18
2019-04-27T01:58:06.096Z,99242.68
2019-04-27T02:01:02.308Z,99239.22
2019-04-27T02:03:51.858Z,99243.17
2019-04-27T02:06:24.969Z,99242.68
2019-04-27T02:08:56.869Z,99244.00
2019-04-27T02:11:28.758Z,99244.85
2019-04-27T02:14:00.608Z,99242.32
2019-04-27T02:16:32.538Z,99240.54
2019-04-27T02:19:04.639Z,99241.25
2019-04-27T02:21:35.653Z,99247.84
2019-04-27T02:24:09.755Z,99241.97
2019-04-27T02:26:41.631Z,99245.67
2019-04-27T02:29:41.458Z,99250.48
2019-04-27T02:32:40.490Z,99250.34
2019-04-27T02:35:15.210Z,99251.20
2019-04-27T02:37:47.244Z,99250.70
2019-04-27T02:40:42.392Z,99247.81
2019-04-27T02:43:14.880Z,99248.17
2019-04-27T02:45:50.153Z,99242.05
2019-04-27T02:48:21.670Z,99249.14
2019-04-27T02:50:56.490Z,99247.92
2019-04-27T02:53:45.974Z,99246.71
2019-04-27T02:56:20.261Z,99249.10
2019-04-27T02:58:51.870Z,99248.85
2019-04-27T03:01:26.304Z,99251.59
2019-04-27T03:04:00.223Z,99247.17
2019-04-27T03:06:32.290Z,99249.81
2019-04-27T03:09:04.811Z,99245.11
2019-04-27T03:11:39.548Z,99246.11
2019-04-27T03:14:35.288Z,99245.81
2019-04-27T03:17:32.800Z,99246.70
2019-04-27T03:20:30.728Z,99248.45
2019-04-27T03:23:05.130Z,99242.39
2019-04-27T03:25:54.808Z,99245.67
2019-04-27T03:28:29.655Z,99241.11
2019-04-27T03:31:02.368Z,99241.75
2019-04-27T03:33:35.480Z,99253.56
2019-04-27T03:36:12.474Z,99255.41
2019-04-27T03:38:42.181Z,99250.02
2019-04-27T03:41:13.225Z,99248.20
2019-04-27T03:43:45.206Z,99247.35
2019-04-27T03:46:20.219Z,99250.45
2019-04-27T03:48:51.739Z,99246.31
2019-04-27T03:51:32.769Z,99248.52
2019-04-27T03:54:26.518Z,99251.28
2019-04-27T03:57:05.718Z,99252.18
2019-04-27T03:59:55.309Z,99241.88
2019-04-27T04:02:29.922Z,99248.23
2019-04-27T04:05:01.222Z,99251.88
2019-04-27T04:07:32.406Z,99262.93
2019-04-27T04:10:04.618Z,99267.31
2019-04-27T04:12:50.091Z,99264.66
2019-04-27T04:15:39.820Z,99268.61
2019-04-27T04:18:12.523Z,99265.62
2019-04-27T04:20:44.538Z,99266.81
2019-04-27T04:23:16.650Z,99265.48
2019-04-27T04:25:49.883Z,99266.78
2019-04-27T04:28:22.098Z,99264.33
2019-04-27T04:30:54.162Z,99273.47
2019-04-27T04:33:26.203Z,99284.78
2019-04-27T04:35:59.732Z,99283.39
2019-04-27T04:38:32.041Z,99291.98
2019-04-27T04:41:09.453Z,99289.77
2019-04-27T04:43:48.963Z,99290.44
2019-04-27T04:46:39.937Z,99293.88
2019-04-27T04:49:12.081Z,99290.47
2019-04-27T04:51:44.031Z,99294.32
2019-04-27T04:54:15.266Z,99303.47
2019-04-27T04:56:49.323Z,99310.10
2019-04-27T04:59:21.067Z,99300.80
2019-04-27T05:01:53.078Z,99310.50
2019-04-27T05:04:25.477Z,99312.42
2019-04-27T05:06:59.035Z,99312.20
2019-04-27T05:09:31.978Z,99315.08
2019-04-27T05:12:03.056Z,99320.73
2019-04-27T05:14:34.838Z,99330.39
2019-04-27T05:17:06.958Z,99328.21
2019-04-27T05:19:39.047Z,99331.34
2019-04-27T05:22:10.937Z,99335.92
2019-04-27T05:24:42.918Z,99333.11
2019-04-27T05:27:14.958Z,99331.53
2019-04-27T05:29:47.057Z,99321.06
2019-04-27T05:32:20.719Z,99322.93
2019-04-27T05:34:52.927Z,99324.07
2019-04-27T05:37:28.228Z,99323.50
2019-04-27T05:39:58.972Z,99332.59
2019-04-27T05:42:32.017Z,99343.42
2019-04-27T05:45:24.193Z,99352.58
2019-04-27T05:48:00.857Z,99347.70
2019-04-27T05:50:38.087Z,99346.86
2019-04-27T05:53:06.640Z,99345.40
2019-04-27T05:55:39.298Z,99348.34
2019-04-27T05:58:11.417Z,99356.14
2019-04-27T06:00:44.228Z,99362.19
2019-04-27T06:03:16.247Z,99367.00
2019-04-27T06:05:49.408Z,99372.77
2019-04-27T06:08:21.376Z,99377.52
2019-04-27T06:10:53.337Z,99376.98
2019-04-27T06:13:24.435Z,99381.94
2019-04-27T06:15:56.206Z,99375.30
2019-04-27T06:18:29.475Z,99383.67
2019-04-27T06:21:01.726Z,99385.56
2019-04-27T06:23:33.727Z,99376.23
2019-04-27T06:26:05.827Z,99379.91
2019-04-27T06:28:36.942Z,99381.58
2019-04-27T06:31:09.538Z,99379.11
2019-04-27T06:33:41.527Z,99393.13
2019-04-27T06:36:12.985Z,99390.98
2019-04-27T06:38:44.786Z,99387.64
2019-04-27T06:41:15.887Z,99392.02
2019-04-27T06:43:49.411Z,99399.13
2019-04-27T06:46:21.632Z,99402.85
2019-04-27T06:48:53.666Z,99394.76
2019-04-27T06:51:25.775Z,99404.92
2019-04-27T06:53:59.407Z,99410.67
2019-04-27T06:56:31.616Z,99413.20
2019-04-27T06:59:03.726Z,99424.56
2019-04-27T07:01:34.775Z,99417.70
2019-04-27T07:04:08.861Z,99429.44
2019-04-27T07:06:52.757Z,99429.56
2019-04-27T07:09:14.626Z,99430.13
2019-04-27T07:11:46.917Z,99427.25
2019-04-27T07:14:19.626Z,99436.86
2019-04-27T07:16:50.787Z,99438.02
2019-04-27T07:19:22.665Z,99438.69
2019-04-27T07:21:54.817Z,99442.48
2019-04-27T07:24:25.907Z,99454.43
2019-04-27T07:26:59.358Z,99460.48
2019-04-27T07:29:31.614Z,99470.00
2019-04-27T07:32:03.556Z,99469.98
2019-04-27T07:34:35.936Z,99470.20
2019-04-27T07:37:09.354Z,99472.05
2019-04-27T07:39:42.805Z,99473.77
2019-04-27T07:42:14.887Z,99471.20
2019-04-27T07:44:50.108Z,99478.09
2019-04-27T07:47:26.917Z,99483.67
2019-04-27T07:49:59.253Z,99475.14
2019-04-27T07:52:34.064Z,99477.20
2019-04-27T07:55:05.193Z,99485.77
2019-04-27T07:57:36.936Z,99483.86
2019-04-27T08:00:11.127Z,99482.84
2019-04-27T08:02:43.176Z,99481.24
2019-04-27T08:05:14.289Z,99483.45
2019-04-27T08:07:46.044Z,99478.47
2019-04-27T08:10:19.352Z,99468.50
2019-04-27T08:12:51.546Z,99474.63
2019-04-27T08:15:23.646Z,99470.77
2019-04-27T08:17:54.704Z,99470.81
2019-04-27T08:20:26.546Z,99471.48
2019-04-27T08:22:59.676Z,99484.23
2019-04-27T08:25:32.615Z,99493.31
2019-04-27T08:28:22.405Z,99493.78
2019-04-27T08:31:15.894Z,99490.97
2019-04-27T08:33:48.676Z,99497.14
2019-04-27T08:36:20.866Z,99487.88
2019-04-27T08:38:52.095Z,99491.22
2019-04-27T08:41:23.937Z,99493.97
2019-04-27T08:43:55.992Z,99488.17
2019-04-27T08:46:28.877Z,99477.09
2019-04-27T08:49:01.007Z,99468.70
2019-04-27T08:51:32.977Z,99485.17
2019-04-27T08:54:04.976Z,99483.05
2019-04-27T08:56:36.906Z,99485.23
2019-04-27T08:59:09.538Z,99478.29
2019-04-27T09:01:41.606Z,99484.19
2019-04-27T09:04:13.788Z,99492.38
2019-04-27T09:06:46.628Z,99488.19
2019-04-27T09:09:46.476Z,99510.03
2019-04-27T09:12:36.396Z,99504.70
2019-04-27T09:15:17.166Z,99500.64
2019-04-27T09:17:52.067Z,99500.57
2019-04-27T09:20:30.696Z,99511.47
2019-04-27T09:23:02.667Z,99505.25
2019-04-27T09:25:34.756Z,99504.79
2019-04-27T09:28:05.886Z,99504.72
2019-04-27T09:30:39.255Z,99505.45
2019-04-27T09:33:11.528Z,99492.44
2019-04-27T09:35:43.705Z,99489.86
2019-04-27T09:38:16.749Z,99488.69
2019-04-27T09:40:49.746Z,99490.67
2019-04-27T09:43:22.027Z,99489.99
2019-04-27T09:45:55.799Z,99490.41
2019-04-27T09:48:28.057Z,99490.55
2019-04-27T09:51:00.136Z,99487.88
2019-04-27T09:53:32.036Z,99493.04
2019-04-27T09:56:05.796Z,99491.70
2019-04-27T09:58:38.246Z,99491.81
2019-04-27T10:01:10.387Z,99496.55
2019-04-27T10:03:41.324Z,99507.79
2019-04-27T10:06:13.317Z,99505.84
2019-04-27T10:08:44.235Z,99507.78
2019-04-27T10:11:17.007Z,99490.11
2019-04-27T10:13:49.175Z,99481.13
2019-04-27T10:16:21.146Z,99483.73
2019-04-27T10:18:52.165Z,99497.80
2019-04-27T10:21:24.006Z,99497.32
2019-04-27T10:23:57.072Z,99506.72
2019-04-27T10:26:29.216Z,99495.94
2019-04-27T10:29:00.125Z,99487.12
2019-04-27T10:31:31.921Z,99494.14
2019-04-27T10:34:03.907Z,99493.64
2019-04-27T10:36:41.796Z,99492.34
2019-04-27T10:39:14.606Z,99496.80
2019-04-27T10:41:46.639Z,99494.41
2019-04-27T10:44:18.816Z,99491.89
2019-04-27T10:46:50.816Z,99499.88
2019-04-27T10:49:22.806Z,99495.53
2019-04-27T10:51:55.771Z,99500.64
2019-04-27T10:54:29.326Z,99502.10
2019-04-27T10:57:01.319Z,99511.68
2019-04-27T10:59:33.227Z,99511.68
2019-04-27T11:02:05.667Z,99507.47
2019-04-27T11:04:50.066Z,99506.66
2019-04-27T11:07:25.937Z,99502.06
2019-04-27T11:09:58.066Z,99512.44
2019-04-27T11:12:30.427Z,99509.96
2019-04-27T11:15:02.367Z,99524.59
2019-04-27T11:17:34.389Z,99526.00
2019-04-27T11:20:07.447Z,99526.23
2019-04-27T11:22:39.729Z,99523.42
2019-04-27T11:25:11.044Z,99529.85
2019-04-27T11:27:42.880Z,99532.72
2019-04-27T11:30:16.847Z,99536.27
2019-04-27T11:32:48.836Z,99534.52
2019-04-27T11:35:43.546Z,99539.94
2019-04-27T11:38:16.765Z,99539.77
2019-04-27T11:40:48.939Z,99541.03
2019-04-27T11:43:21.077Z,99542.20
2019-04-27T11:45:53.455Z,99540.73
2019-04-27T11:48:26.246Z,99541.70
2019-04-27T11:50:58.366Z,99542.41
2019-04-27T11:53:30.286Z,99548.56
2019-04-27T11:56:02.267Z,99547.11
2019-04-27T11:58:34.969Z,99553.23
2019-04-27T12:01:08.434Z,99554.02
2019-04-27T12:03:40.550Z,99557.80
2019-04-27T12:06:11.665Z,99562.31
2019-04-27T12:08:43.537Z,99569.77
2019-04-27T12:11:16.061Z,99568.73
2019-04-27T12:13:48.228Z,99567.53
2019-04-27T12:16:20.279Z,99568.27
2019-04-27T12:18:52.396Z,99563.48
2019-04-27T12:21:23.365Z,99575.15
2019-04-27T12:23:55.122Z,99585.08
2019-04-27T12:26:49.543Z,99595.07
2019-04-27T12:29:23.906Z,99590.00
2019-04-27T12:31:56.277Z,99595.77
2019-04-27T12:34:28.311Z,99592.05
2019-04-27T12:37:00.238Z,99591.92
2019-04-27T12:39:32.201Z,99588.08
2019-04-27T12:42:06.011Z,99581.81
2019-04-27T12:44:42.327Z,99584.36
2019-04-27T12:47:12.196Z,99585.80
2019-04-27T12:49:43.245Z,99576.39
2019-04-27T12:52:15.906Z,99574.33
2019-04-27T12:54:54.197Z,99576.27
2019-04-27T12:57:44.099Z,99583.73
2019-04-27T13:00:23.477Z,99578.80
2019-04-27T13:02:55.915Z,99578.35
2019-04-27T13:05:29.236Z,99581.95
2019-04-27T13:08:02.326Z,99582.20
2019-04-27T13:10:34.456Z,99575.45
2019-04-27T13:13:06.314Z,99574.73
2019-04-27T13:15:38.187Z,99568.95
2019-04-27T13:18:10.256Z,99570.16
2019-04-27T13:20:41.306Z,99576.66
2019-04-27T13:23:13.139Z,99580.16
2019-04-27T13:25:46.067Z,99575.31
2019-04-27T13:28:19.230Z,99573.87
2019-04-27T13:30:50.602Z,99582.30
2019-04-27T13:33:22.355Z,99576.31
2019-04-27T13:35:54.424Z,99575.83
2019-04-27T13:38:26.799Z,99579.78
2019-04-27T13:41:08.926Z,99571.69
2019-04-27T13:43:41.276Z,99576.09
2019-04-27T13:46:30.751Z,99570.09
2019-04-27T13:49:40.427Z,99558.57
2019-04-27T13:52:16.596Z,99560.22
2019-04-27T13:54:48.736Z,99557.55
2019-04-27T13:57:19.915Z,99550.08
2019-04-27T13:59:51.790Z,99556.95
2019-04-27T14:02:26.610Z,99549.02
2019-04-27T14:04:58.378Z,99550.66
2019-04-27T14:07:30.306Z,99552.59
2019-04-27T14:10:02.367Z,99549.91
2019-04-27T14:12:35.380Z,99546.91
2019-04-27T14:15:08.521Z,99541.05
2019-04-27T14:17:39.974Z,99545.38
2019-04-27T14:20:12.326Z,99546.22
2019-04-27T14:22:44.796Z,99546.66
2019-04-27T14:25:18.157Z,99551.52
2019-04-27T14:27:50.264Z,99552.30
2019-04-27T14:30:21.585Z,99556.37
2019-04-27T14:32:53.386Z,99553.72
2019-04-27T14:35:25.585Z,99557.62
2019-04-27T14:37:58.079Z,99556.76
2019-04-27T14:40:30.106Z,99555.74
2019-04-27T14:43:02.187Z,99557.05
2019-04-27T14:45:34.139Z,99560.48
2019-04-27T14:48:08.108Z,99555.58
2019-04-27T14:50:40.492Z,99561.28
2019-04-27T14:53:12.626Z,99559.70
2019-04-27T14:55:44.736Z,99559.39
2019-04-27T14:58:19.168Z,99562.66
2019-04-27T15:00:50.918Z,99559.29
2019-04-27T15:03:23.926Z,99563.67
2019-04-27T15:05:56.095Z,99564.94
2019-04-27T15:08:27.255Z,99564.38
2019-04-27T15:10:59.126Z,99566.10
2019-04-27T15:13:30.203Z,99572.25
2019-04-27T15:16:02.638Z,99567.85
2019-04-27T15:18:43.517Z,99566.02
2019-04-27T15:21:13.556Z,99567.84
2019-04-27T15:23:44.724Z,99564.38
2019-04-27T15:26:20.283Z,99563.70
2019-04-27T15:28:52.288Z,99563.08
2019-04-27T15:31:34.665Z,99563.91
2019-04-27T15:34:17.867Z,99556.09
2019-04-27T15:37:12.078Z,99559.06
2019-04-27T15:40:08.574Z,99558.44
2019-04-27T15:42:51.750Z,99558.97
2019-04-27T15:45:24.197Z,99552.57
2019-04-27T15:47:54.762Z,99546.59
2019-04-27T15:50:28.517Z,99543.42
2019-04-27T15:53:02.835Z,99543.95
2019-04-27T15:55:38.931Z,99541.14
2019-04-27T15:58:10.166Z,99547.59
2019-04-27T16:00:42.177Z,99547.39
2019-04-27T16:03:18.112Z,99545.64
2019-04-27T16:05:50.814Z,99541.14
2019-04-27T16:08:22.780Z,99534.06
2019-04-27T16:10:54.726Z,99539.19
2019-04-27T16:13:32.585Z,99535.28
2019-04-27T16:16:00.487Z,99535.28
2019-04-27T16:18:32.745Z,99531.81
2019-04-27T16:21:07.052Z,99528.23
2019-04-27T16:23:42.867Z,99537.14
2019-04-27T16:26:14.852Z,99532.22
2019-04-27T16:28:49.798Z,99533.64
2019-04-27T16:31:20.601Z,99525.89
2019-04-27T16:33:58.492Z,99530.59
2019-04-27T16:36:28.859Z,99534.77
2019-04-27T16:39:03.616Z,99536.55
2019-04-27T16:41:38.899Z,99529.92
2019-04-27T16:44:11.830Z,99530.72
2019-04-27T16:46:44.106Z,99532.61
2019-04-27T16:49:16.171Z,99532.14
2019-04-27T16:51:49.248Z,99529.00
2019-04-27T16:54:22.547Z,99528.39
2019-04-27T16:57:04.582Z,99523.55
2019-04-27T16:59:44.228Z,99522.69
2019-04-27T17:02:03.936Z,99528.13
2019-04-27T17:04:35.877Z,99536.47
2019-04-27T17:07:08.700Z,99535.84
2019-04-27T17:09:46.126Z,99543.40
2019-04-27T17:12:15.491Z,99542.28
2019-04-27T17:14:54.746Z,99551.72
2019-04-27T17:17:42.759Z,99545.61
2019-04-27T17:20:19.637Z,99547.98
2019-04-27T17:22:50.242Z,99553.10
2019-04-27T17:25:23.227Z,99554.62
2019-04-27T17:28:04.040Z,99560.33
2019-04-27T17:30:39.812Z,99555.31
2019-04-27T17:33:38.085Z,99561.55
2019-04-27T17:36:16.381Z,99551.25
2019-04-27T17:38:49.177Z,99569.39
2019-04-27T17:41:20.077Z,99568.49
2019-04-27T17:43:52.016Z,99573.77
2019-04-27T17:46:25.767Z,99578.09
2019-04-27T17:49:08.458Z,99581.87
2019-04-27T17:51:44.351Z,99586.23
2019-04-27T17:54:15.865Z,99591.97
2019-04-27T17:56:49.434Z,99596.28
2019-04-27T17:59:20.971Z,99592.06
2019-04-27T18:01:53.942Z,99596.97
2019-04-27T18:04:28.687Z,99597.83
2019-04-27T18:07:03.316Z,99607.63
2019-04-27T18:09:40.370Z,99609.12
2019-04-27T18:12:14.591Z,99600.03
2019-04-27T18:14:42.546Z,99595.12
2019-04-27T18:17:14.603Z,99600.39
2019-04-27T18:19:53.496Z,99606.45
2019-04-27T18:22:28.186Z,99615.50
2019-04-27T18:25:06.591Z,99620.19
2019-04-27T18:27:52.277Z,99617.55
2019-04-27T18:30:38.119Z,99624.14
2019-04-27T18:33:08.041Z,99621.50
2019-04-27T18:35:40.146Z,99618.70
2019-04-27T18:38:12.286Z,99620.05
2019-04-27T18:40:44.376Z,99626.84
2019-04-27T18:43:15.476Z,99636.73
2019-04-27T18:45:48.598Z,99634.97
2019-04-27T18:48:58.452Z,99626.66
2019-04-27T18:52:04.134Z,99628.37
2019-04-27T18:54:38.203Z,99632.60
2019-04-27T18:57:10.870Z,99635.61
2019-04-27T18:59:41.326Z,99635.61
2019-04-27T19:02:13.286Z,99640.23
2019-04-27T19:04:45.296Z,99642.75
2019-04-27T19:07:17.266Z,99647.20
2019-04-27T19:09:49.594Z,99638.65
2019-04-27T19:12:21.568Z,99649.92
2019-04-27T19:14:52.926Z,99653.02
2019-04-27T19:17:25.066Z,99656.06
2019-04-27T19:19:57.117Z,99653.42
2019-04-27T19:22:30.002Z,99644.56
2019-04-27T19:25:02.186Z,99653.20
2019-04-27T19:27:48.636Z,99650.93
2019-04-27T19:30:31.767Z,99655.11
2019-04-27T19:33:03.906Z,99662.25
2019-04-27T19:35:44.308Z,99660.66
2019-04-27T19:38:18.619Z,99656.80
2019-04-27T19:40:50.887Z,99656.43
2019-04-27T19:43:22.897Z,99657.75
2019-04-27T19:45:55.137Z,99654.28
2019-04-27T19:48:28.658Z,99650.79
2019-04-27T19:51:00.767Z,99646.38
2019-04-27T19:53:32.727Z,99651.52
2019-04-27T19:56:03.884Z,99652.84
2019-04-27T19:58:42.946Z,99650.61
2019-04-27T20:01:22.077Z,99659.10
2019-04-27T20:03:59.801Z,99658.88
2019-04-27T20:06:31.913Z,99659.38
2019-04-27T20:09:04.925Z,99650.24
2019-04-27T20:14:18.041Z,99647.33
2019-04-27T20:16:49.090Z,99647.52
2019-04-27T20:19:21.576Z,99644.15
2019-04-27T20:21:53.746Z,99641.97
2019-04-27T20:24:25.876Z,99639.34
2019-04-27T20:26:56.844Z,99633.33
2019-04-27T20:29:28.556Z,99631.73
2019-04-27T20:32:01.215Z,99632.56
2019-04-27T20:34:33.342Z,99629.29
2019-04-27T20:37:05.646Z,99627.97
2019-04-27T20:39:36.685Z,99629.75
2019-04-27T20:42:08.537Z,99635.20
2019-04-27T20:44:41.259Z,99636.80
2019-04-27T20:47:13.278Z,99633.92
2019-04-27T20:49:44.345Z,99630.70
2019-04-27T20:52:23.086Z,99626.97
2019-04-27T20:54:55.126Z,99623.66
2019-04-27T20:57:27.166Z,99613.02
2019-04-27T20:59:59.247Z,99605.67
2019-04-27T21:02:43.199Z,99602.30
2019-04-27T21:05:46.626Z,99603.70
2019-04-27T21:08:20.872Z,99609.34
2019-04-27T21:10:52.970Z,99614.92
2019-04-27T21:13:23.965Z,99615.38
2019-04-27T21:15:55.717Z,99604.48
2019-04-27T21:18:27.775Z,99609.66
2019-04-27T21:21:01.392Z,99605.80
2019-04-27T21:23:33.306Z,99594.44
2019-04-27T21:26:06.767Z,99589.72
2019-04-27T21:28:38.875Z,99589.34
2019-04-27T21:31:12.687Z,99583.90
2019-04-27T21:33:44.666Z,99584.66
2019-04-27T21:36:16.670Z,99585.98
2019-04-27T21:38:47.725Z,99583.80
2019-04-27T21:41:20.917Z,99584.20
2019-04-27T21:43:53.296Z,99585.25
2019-04-27T21:46:25.268Z,99580.34
2019-04-27T21:48:57.176Z,99577.44
2019-04-27T21:51:29.606Z,99571.59
2019-04-27T21:54:17.071Z,99568.13
2019-04-27T21:56:49.146Z,99559.09
2019-04-27T21:59:21.135Z,99556.28
2019-04-27T22:01:55.437Z,99562.50
2019-04-27T22:04:27.394Z,99560.05
2019-04-27T22:07:01.416Z,99571.90
2019-04-27T22:09:33.646Z,99565.03
2019-04-27T22:12:05.976Z,99568.89
2019-04-27T22:14:38.924Z,99571.53
2019-04-27T22:17:11.122Z,99569.45
2019-04-27T22:19:42.185Z,99570.39
2019-04-27T22:22:24.827Z,99568.71
2019-04-27T22:25:05.896Z,99571.34
2019-04-27T22:27:37.946Z,99563.05
2019-04-27T22:30:10.993Z,99561.73
2019-04-27T22:32:43.066Z,99559.09
2019-04-27T22:35:15.207Z,99564.36
2019-04-27T22:37:46.365Z,99560.81
2019-04-27T22:40:37.146Z,99560.13
2019-04-27T22:43:34.306Z,99560.41
2019-04-27T22:46:07.891Z,99550.37
2019-04-27T22:48:41.567Z,99552.73
2019-04-27T22:51:14.585Z,99555.05
2019-04-27T22:53:46.706Z,99556.37
2019-04-27T22:56:22.253Z,99555.14
2019-04-27T22:59:07.463Z,99558.81
2019-04-27T23:02:01.575Z,99559.67
2019-04-27T23:04:37.665Z,99555.72
2019-04-27T23:07:11.076Z,99560.04
2019-04-27T23:09:44.336Z,99566.04
2019-04-27T23:12:16.827Z,99567.08
2019-04-27T23:14:48.996Z,99571.52
2019-04-27T23:17:55.107Z,99569.71
2019-04-27T23:20:27.518Z,99573.38
2019-04-27T23:23:01.286Z,99580.91
2019-04-27T23:25:33.238Z,99582.41
2019-04-27T23:28:05.367Z,99582.13
2019-04-27T23:30:44.949Z,99587.13
2019-04-27T23:33:16.996Z,99581.86
2019-04-27T23:35:49.016Z,99588.06
2019-04-27T23:38:21.130Z,99584.66
2019-04-27T23:40:53.086Z,99589.10
2019-04-27T23:43:25.047Z,99583.75
2019-04-27T23:45:58.366Z,99575.84
2019-04-27T23:48:32.141Z,99570.21
2019-04-27T23:51:25.798Z,99574.25
2019-04-27T23:53:57.967Z,99579.97
2019-04-27T23:56:28.985Z,99584.41
2019-04-27T23:59:01.826Z,99586.94
